Time;durP1;ratioP1;P1;durP2;ratioP2;P2;SDS_P1;SDS_P2;PMS_P1;PMS_P2;Temp;Humidity;BMP_temperature;BMP_pressure;BME280_temperature;BME280_humidity;BME280_pressure;Samples;Min_cycle;Max_cycle;Signal;HPM_P1;HPM_P2
2022/09/21 00:00:27;;;;;;;7.97;4.55;;;10.70;99.90;;;;;;5134893;27;20663;-53
2022/09/21 00:02:56;;;;;;;14.45;5.07;;;10.80;99.90;;;;;;5133297;27;20524;-53
2022/09/21 00:05:23;;;;;;;8.60;5.20;;;10.70;99.90;;;;;;5134442;27;20243;-53
2022/09/21 00:07:49;;;;;;;8.65;4.63;;;10.60;99.90;;;;;;5134517;27;20508;-54
2022/09/21 00:10:15;;;;;;;10.57;5.30;;;10.60;99.90;;;;;;5134102;27;20202;-53
2022/09/21 00:12:41;;;;;;;7.22;4.93;;;10.60;99.90;;;;;;5134465;27;20156;-53
2022/09/21 00:15:09;;;;;;;7.80;4.75;;;10.50;99.90;;;;;;5134525;27;20198;-53
2022/09/21 00:17:36;;;;;;;5.75;4.72;;;10.60;99.90;;;;;;5134308;27;20171;-53
2022/09/21 00:20:04;;;;;;;10.43;4.97;;;10.60;99.90;;;;;;5134217;27;20191;-53
2022/09/21 00:22:31;;;;;;;10.52;5.43;;;10.60;99.90;;;;;;5134518;27;20637;-53
2022/09/21 00:24:56;;;;;;;9.77;5.30;;;10.60;99.90;;;;;;5134572;27;20274;-53
2022/09/21 00:27:28;;;;;;;13.90;5.50;;;10.60;99.90;;;;;;5134003;27;20597;-53
2022/09/21 00:30:00;;;;;;;11.70;5.38;;;10.50;99.90;;;;;;5134207;27;20208;-53
2022/09/21 00:32:25;;;;;;;5.78;4.75;;;10.50;99.90;;;;;;5134297;27;20164;-53
2022/09/21 00:34:52;;;;;;;10.27;4.95;;;10.50;99.90;;;;;;5132104;27;20578;-52
2022/09/21 00:37:20;;;;;;;10.38;5.50;;;10.50;99.90;;;;;;5132088;27;20228;-53
2022/09/21 00:39:46;;;;;;;11.38;5.78;;;10.40;99.90;;;;;;5134127;27;20168;-53
2022/09/21 00:42:22;;;;;;;7.97;5.47;;;10.50;99.90;;;;;;5133817;27;20532;-53
2022/09/21 00:44:48;;;;;;;9.45;5.15;;;10.40;99.90;;;;;;5133811;27;20167;-53
2022/09/21 00:47:21;;;;;;;11.73;5.60;;;10.50;99.90;;;;;;5133739;27;20171;-53
2022/09/21 00:49:50;;;;;;;7.05;5.15;;;10.40;99.90;;;;;;5133537;27;20195;-53
2022/09/21 00:52:18;;;;;;;12.38;5.63;;;10.40;99.90;;;;;;5133583;27;20213;-53
2022/09/21 00:54:51;;;;;;;9.52;5.55;;;10.40;99.90;;;;;;5133510;27;20228;-53
2022/09/21 00:57:20;;;;;;;9.18;5.35;;;10.40;99.90;;;;;;5133579;27;20194;-53
2022/09/21 00:59:49;;;;;;;7.20;5.28;;;10.30;99.90;;;;;;5133680;27;20577;-53
2022/09/21 01:02:15;;;;;;;7.15;5.30;;;10.30;99.90;;;;;;5133441;27;20569;-53
2022/09/21 01:04:42;;;;;;;9.07;5.40;;;10.20;99.90;;;;;;5133688;27;20179;-53
2022/09/21 01:07:12;;;;;;;8.63;5.72;;;10.30;99.90;;;;;;5133371;27;20164;-53
2022/09/21 01:09:40;;;;;;;10.57;5.03;;;10.30;99.90;;;;;;5133481;27;20206;-53
2022/09/21 01:12:43;;;;;;;9.52;5.57;;;10.30;99.90;;;;;;5133209;27;20163;-53
2022/09/21 01:15:20;;;;;;;11.90;5.68;;;10.30;99.90;;;;;;5132094;27;20180;-53
2022/09/21 01:18:05;;;;;;;10.20;5.70;;;10.30;99.90;;;;;;5133046;27;20160;-53
2022/09/21 01:20:33;;;;;;;10.77;5.15;;;10.20;99.90;;;;;;5133380;27;20207;-52
2022/09/21 01:23:19;;;;;;;8.93;5.47;;;10.20;99.90;;;;;;5133382;27;20168;-54
2022/09/21 01:26:03;;;;;;;7.50;5.35;;;10.10;99.90;;;;;;5132964;27;20620;-53
2022/09/21 01:29:06;;;;;;;9.65;5.97;;;10.10;99.90;;;;;;5133242;27;20163;-53
2022/09/21 01:31:45;;;;;;;8.57;5.95;;;10.10;99.90;;;;;;5132830;27;20199;-54
2022/09/21 01:34:18;;;;;;;9.48;6.65;;;10.10;99.90;;;;;;5133011;27;20155;-54
2022/09/21 01:36:46;;;;;;;8.40;5.82;;;10.00;99.90;;;;;;5133228;27;20168;-54
2022/09/21 01:39:15;;;;;;;12.82;6.13;;;10.00;99.90;;;;;;5132864;27;20163;-54
2022/09/21 01:41:44;;;;;;;9.65;6.43;;;10.00;99.90;;;;;;5132807;27;20162;-54
2022/09/21 01:44:16;;;;;;;8.18;5.38;;;10.00;99.90;;;;;;5132888;27;20182;-54
2022/09/21 01:46:43;;;;;;;9.05;5.75;;;9.90;99.90;;;;;;5132378;27;20258;-54
2022/09/21 01:49:13;;;;;;;11.13;6.25;;;9.90;99.90;;;;;;5132946;27;20218;-53
2022/09/21 01:51:47;;;;;;;9.88;6.22;;;10.00;99.90;;;;;;5132986;27;20598;-53
2022/09/21 01:54:29;;;;;;;10.07;6.10;;;10.00;99.90;;;;;;5132521;27;20215;-54
2022/09/21 01:57:10;;;;;;;8.32;6.30;;;9.90;99.90;;;;;;5132617;27;20171;-54
2022/09/21 01:59:55;;;;;;;12.30;6.55;;;9.90;99.90;;;;;;5132590;27;20217;-53
2022/09/21 02:02:33;;;;;;;12.38;6.60;;;9.90;99.90;;;;;;5132589;27;20701;-54
2022/09/21 02:05:04;;;;;;;9.95;6.57;;;9.90;99.90;;;;;;5132862;27;20217;-54
2022/09/21 02:07:32;;;;;;;9.48;6.40;;;9.90;99.90;;;;;;5132861;27;20176;-54
2022/09/21 02:09:59;;;;;;;12.32;6.70;;;9.80;99.90;;;;;;5132882;27;20210;-53
2022/09/21 02:12:25;;;;;;;10.60;6.32;;;9.80;99.90;;;;;;5132993;27;20171;-53
2022/09/21 02:14:54;;;;;;;16.10;7.22;;;9.80;99.90;;;;;;5132410;28;20164;-53
2022/09/21 02:17:48;;;;;;;11.85;6.50;;;9.80;99.90;;;;;;5132674;27;20168;-53
2022/09/21 02:20:19;;;;;;;11.35;5.55;;;9.80;99.90;;;;;;5132396;28;20168;-54
2022/09/21 02:23:10;;;;;;;10.43;6.28;;;9.80;99.90;;;;;;5132416;27;20167;-54
2022/09/21 02:25:48;;;;;;;10.00;6.55;;;9.70;99.90;;;;;;5132341;27;20170;-53
2022/09/21 02:28:31;;;;;;;9.35;6.00;;;9.70;99.90;;;;;;5132357;27;20187;-53
2022/09/21 02:31:19;;;;;;;8.57;5.65;;;9.70;99.90;;;;;;5132603;27;20672;-53
2022/09/21 02:34:00;;;;;;;8.30;5.57;;;9.70;99.90;;;;;;5132294;27;20164;-54
2022/09/21 02:36:46;;;;;;;8.77;5.80;;;9.70;99.90;;;;;;5132587;27;20167;-54
2022/09/21 02:39:18;;;;;;;10.27;5.70;;;9.70;99.90;;;;;;5132204;27;20189;-54
2022/09/21 02:42:05;;;;;;;9.07;6.18;;;9.70;99.90;;;;;;5132264;27;20164;-54
2022/09/21 02:44:39;;;;;;;7.22;5.72;;;9.70;99.90;;;;;;5132406;27;20512;-53
2022/09/21 02:47:11;;;;;;;7.72;5.05;;;9.60;99.90;;;;;;5132128;27;20160;-54
2022/09/21 02:49:43;;;;;;;11.15;5.82;;;9.60;99.90;;;;;;5132131;28;20665;-54
2022/09/21 02:52:13;;;;;;;9.95;5.28;;;9.60;99.90;;;;;;5132345;27;20232;-53
2022/09/21 02:54:43;;;;;;;9.90;5.85;;;9.60;99.90;;;;;;5132103;27;20215;-53
2022/09/21 02:57:11;;;;;;;7.85;5.18;;;9.60;99.90;;;;;;5132446;27;20194;-53
2022/09/21 02:59:38;;;;;;;7.95;5.28;;;9.50;99.90;;;;;;5134293;27;20187;-54
2022/09/21 03:02:05;;;;;;;9.02;5.50;;;9.50;99.90;;;;;;5135799;27;20657;-53
2022/09/21 03:04:31;;;;;;;5.22;4.38;;;9.40;99.90;;;;;;5135917;27;20176;-54
2022/09/21 03:06:57;;;;;;;5.35;4.32;;;9.40;99.90;;;;;;5134746;27;20160;-54
2022/09/21 03:09:23;;;;;;;7.63;5.15;;;9.30;99.90;;;;;;5135183;27;20671;-54
2022/09/21 03:11:49;;;;;;;12.48;5.97;;;9.30;99.90;;;;;;5135730;27;20200;-53
2022/09/21 03:14:16;;;;;;;10.55;4.97;;;9.20;99.90;;;;;;5134647;27;20183;-53
2022/09/21 03:16:41;;;;;;;10.82;5.80;;;9.10;99.90;;;;;;5135699;27;20176;-54
2022/09/21 03:19:07;;;;;;;8.25;5.85;;;9.20;99.90;;;;;;5135361;27;20341;-53
2022/09/21 03:21:33;;;;;;;8.38;5.65;;;9.20;99.90;;;;;;5135633;27;20179;-53
2022/09/21 03:23:59;;;;;;;6.45;5.32;;;9.20;99.90;;;;;;5135723;27;20168;-53
2022/09/21 03:26:24;;;;;;;8.60;5.93;;;9.20;99.90;;;;;;5135510;27;20191;-53
2022/09/21 03:28:53;;;;;;;10.35;5.75;;;9.20;99.90;;;;;;5135082;27;20164;-53
2022/09/21 03:31:19;;;;;;;7.57;5.38;;;9.20;99.90;;;;;;5135383;27;20510;-54
2022/09/21 03:33:45;;;;;;;8.80;6.50;;;9.20;99.90;;;;;;5135143;27;20156;-53
2022/09/21 03:36:10;;;;;;;9.48;6.72;;;9.20;99.90;;;;;;5135017;27;20176;-54
2022/09/21 03:38:36;;;;;;;11.02;7.65;;;9.20;99.90;;;;;;5135160;27;20171;-54
2022/09/21 03:41:03;;;;;;;10.30;6.63;;;9.20;99.90;;;;;;5135271;27;20176;-53
2022/09/21 03:43:29;;;;;;;11.45;6.32;;;9.20;99.90;;;;;;5135395;27;20616;-54
2022/09/21 03:45:54;;;;;;;14.20;6.22;;;9.10;99.90;;;;;;5135322;27;20228;-53
2022/09/21 03:48:21;;;;;;;10.85;6.03;;;9.10;99.90;;;;;;5134789;27;20172;-53
2022/09/21 03:50:46;;;;;;;8.20;6.55;;;9.10;99.90;;;;;;5135129;27;20279;-53
2022/09/21 03:53:12;;;;;;;8.32;5.68;;;9.10;99.90;;;;;;5134579;27;20247;-54
2022/09/21 03:55:38;;;;;;;6.88;5.47;;;9.00;99.90;;;;;;5134989;27;20214;-53
2022/09/21 03:58:04;;;;;;;9.93;5.90;;;9.10;99.90;;;;;;5134613;27;20557;-54
2022/09/21 04:00:30;;;;;;;6.60;5.07;;;9.10;99.90;;;;;;5134678;27;20204;-53
2022/09/21 04:02:55;;;;;;;8.25;5.30;;;9.10;99.90;;;;;;5134955;27;20183;-54
2022/09/21 04:05:21;;;;;;;8.02;5.20;;;9.00;99.90;;;;;;5134554;27;20180;-54
2022/09/21 04:07:47;;;;;;;9.63;6.07;;;9.00;99.90;;;;;;5134711;27;20175;-54
2022/09/21 04:10:18;;;;;;;6.40;5.03;;;9.00;99.90;;;;;;5134340;27;20208;-54
2022/09/21 04:12:45;;;;;;;7.95;5.57;;;9.00;99.90;;;;;;5134434;27;20167;-54
2022/09/21 04:15:13;;;;;;;9.52;6.25;;;9.00;99.90;;;;;;5134213;27;20263;-52
2022/09/21 04:17:39;;;;;;;10.98;6.38;;;9.00;99.90;;;;;;5134365;27;20164;-54
2022/09/21 04:20:05;;;;;;;9.43;5.95;;;9.00;99.90;;;;;;5134359;27;20172;-53
2022/09/21 04:22:31;;;;;;;9.35;6.00;;;8.90;99.90;;;;;;5134483;27;20272;-54
2022/09/21 04:24:57;;;;;;;9.38;5.50;;;8.90;99.90;;;;;;5133233;27;20640;-54
2022/09/21 04:27:23;;;;;;;8.80;5.38;;;8.90;99.90;;;;;;5134468;27;20164;-54
2022/09/21 04:29:49;;;;;;;7.63;5.50;;;8.90;99.90;;;;;;5134323;27;20260;-54
2022/09/21 04:32:14;;;;;;;7.05;5.45;;;8.90;99.90;;;;;;5134096;27;20164;-54
2022/09/21 04:34:40;;;;;;;8.48;6.53;;;8.90;99.90;;;;;;5133960;27;20164;-55
2022/09/21 04:37:10;;;;;;;8.40;5.90;;;8.80;99.90;;;;;;5133922;27;20160;-54
2022/09/21 04:39:36;;;;;;;9.02;6.13;;;8.80;99.90;;;;;;5134156;27;20187;-53
2022/09/21 04:42:03;;;;;;;8.32;6.85;;;8.90;99.90;;;;;;5133790;27;20179;-54
2022/09/21 04:44:29;;;;;;;11.63;6.72;;;8.80;99.90;;;;;;5134308;27;20274;-53
2022/09/21 04:46:55;;;;;;;11.77;6.95;;;8.80;99.90;;;;;;5134346;27;20194;-54
2022/09/21 04:49:21;;;;;;;12.43;6.68;;;8.80;99.90;;;;;;5133750;27;20202;-54
2022/09/21 04:51:47;;;;;;;7.03;6.25;;;8.80;99.90;;;;;;5133651;27;20172;-53
2022/09/21 04:54:12;;;;;;;13.13;7.28;;;8.80;99.90;;;;;;5133411;27;20212;-54
2022/09/21 04:56:38;;;;;;;9.80;7.00;;;8.80;99.90;;;;;;5133521;27;20168;-54
2022/09/21 04:59:04;;;;;;;12.52;6.60;;;8.70;99.90;;;;;;5133502;27;20164;-54
2022/09/21 05:01:30;;;;;;;12.18;6.43;;;8.70;99.90;;;;;;5133478;27;20689;-53
2022/09/21 05:04:00;;;;;;;8.50;6.82;;;8.70;99.90;;;;;;5133810;27;20578;-54
2022/09/21 05:06:27;;;;;;;12.05;6.90;;;8.80;99.90;;;;;;5133697;27;20175;-54
2022/09/21 05:11:36;;;;;;;14.65;6.97;;;8.80;99.90;;;;;;5133264;27;20241;-54
2022/09/21 05:14:02;;;;;;;12.95;6.78;;;8.80;99.90;;;;;;5133207;27;20615;-53
2022/09/21 05:16:27;;;;;;;11.10;6.38;;;8.70;99.90;;;;;;5133495;27;20160;-54
2022/09/21 05:18:54;;;;;;;16.08;7.10;;;8.70;99.90;;;;;;5133386;27;20164;-54
2022/09/21 05:21:20;;;;;;;18.10;6.63;;;8.70;99.90;;;;;;5132539;27;20171;-54
2022/09/21 05:23:46;;;;;;;15.27;7.60;;;8.70;99.90;;;;;;5132842;27;20160;-54
2022/09/21 05:26:11;;;;;;;21.92;8.15;;;8.80;99.90;;;;;;5132831;27;20219;-54
2022/09/21 05:28:37;;;;;;;17.10;8.13;;;8.80;99.90;;;;;;5132853;27;20160;-54
2022/09/21 05:31:21;;;;;;;17.90;8.77;;;8.80;99.90;;;;;;5132730;27;20687;-53
2022/09/21 05:34:15;;;;;;;17.98;8.35;;;8.80;99.90;;;;;;5149880;27;20163;-54
2022/09/21 05:36:51;;;;;;;14.82;7.55;;;8.80;99.90;;;;;;5123139;27;20176;-54
2022/09/21 05:39:17;;;;;;;18.27;7.93;;;8.80;99.90;;;;;;5131842;27;20539;-54
2022/09/21 05:41:43;;;;;;;17.45;7.32;;;8.80;99.90;;;;;;5130670;27;20176;-54
2022/09/21 05:44:13;;;;;;;17.65;7.38;;;8.90;99.90;;;;;;5131491;27;20198;-54
2022/09/21 05:46:58;;;;;;;18.10;8.00;;;8.90;99.90;;;;;;5131594;27;20179;-54
2022/09/21 05:50:01;;;;;;;15.00;6.68;;;8.90;99.90;;;;;;5131513;27;20270;-54
2022/09/21 05:52:39;;;;;;;16.60;8.50;;;8.90;99.90;;;;;;5131606;27;20167;-54
2022/09/21 05:55:32;;;;;;;20.60;7.72;;;8.90;99.90;;;;;;5131025;28;20203;-53
2022/09/21 05:58:04;;;;;;;11.85;6.55;;;8.90;99.90;;;;;;5112021;28;20188;-54
2022/09/21 06:00:54;;;;;;;10.00;6.80;;;9.00;99.90;;;;;;5131388;28;20259;-53
2022/09/21 06:03:28;;;;;;;8.90;5.55;;;9.00;99.90;;;;;;5131551;28;20205;-53
2022/09/21 06:05:55;;;;;;;11.13;5.53;;;9.10;99.90;;;;;;5131588;28;20156;-52
2022/09/21 06:08:21;;;;;;;10.20;6.13;;;9.10;99.90;;;;;;5131188;28;20250;-57
2022/09/21 06:10:47;;;;;;;9.93;6.30;;;9.10;99.90;;;;;;5131041;27;20287;-55
2022/09/21 06:13:13;;;;;;;11.57;5.85;;;9.20;99.90;;;;;;5131168;27;20186;-56
2022/09/21 06:15:39;;;;;;;9.38;5.68;;;9.30;99.90;;;;;;5131057;28;20637;-54
2022/09/21 06:18:06;;;;;;;11.82;5.65;;;9.40;99.90;;;;;;5131132;27;20199;-55
2022/09/21 06:20:31;;;;;;;11.50;5.82;;;9.40;99.90;;;;;;5130968;28;20248;-54
2022/09/21 06:23:15;;;;;;;6.97;5.88;;;9.40;99.90;;;;;;5131480;28;20594;-53
2022/09/21 06:25:41;;;;;;;10.25;5.72;;;9.50;99.90;;;;;;5131099;28;20571;-54
2022/09/21 06:28:12;;;;;;;11.43;5.50;;;9.60;99.90;;;;;;5131071;28;20164;-53
2022/09/21 06:30:40;;;;;;;16.95;6.40;;;9.60;99.90;;;;;;5131096;28;20203;-53
2022/09/21 06:33:06;;;;;;;13.85;5.88;;;9.70;99.90;;;;;;5131401;27;20239;-54
2022/09/21 06:35:34;;;;;;;15.23;6.65;;;9.70;99.90;;;;;;5134820;27;20594;-53
2022/09/21 06:38:06;;;;;;;17.88;6.85;;;9.90;99.90;;;;;;5134892;27;20629;-53
2022/09/21 06:40:33;;;;;;;19.27;7.25;;;9.90;99.90;;;;;;5134951;27;20217;-53
2022/09/21 06:43:01;;;;;;;16.40;7.53;;;10.00;99.90;;;;;;5135264;27;20259;-56
2022/09/21 06:45:28;;;;;;;17.83;8.27;;;10.10;99.90;;;;;;5135087;27;20167;-54
2022/09/21 06:47:54;;;;;;;14.25;7.93;;;10.30;99.90;;;;;;5133700;27;20640;-51
2022/09/21 06:50:20;;;;;;;21.17;9.32;;;10.50;99.90;;;;;;5134726;27;20294;-51
2022/09/21 06:52:46;;;;;;;16.10;8.57;;;10.50;99.90;;;;;;5134649;27;20196;-52
2022/09/21 06:55:12;;;;;;;14.75;8.70;;;10.60;99.90;;;;;;5134443;27;20258;-49
2022/09/21 06:57:38;;;;;;;11.70;8.10;;;10.70;99.90;;;;;;5134658;27;20156;-52
2022/09/21 07:00:06;;;;;;;14.60;7.88;;;10.90;99.90;;;;;;5134859;27;20164;-58
2022/09/21 07:02:32;;;;;;;16.15;6.60;;;10.90;99.90;;;;;;5134624;27;20167;-54
2022/09/21 07:04:58;;;;;;;16.85;7.93;;;11.00;99.90;;;;;;5134705;27;20172;-55
2022/09/21 07:07:24;;;;;;;15.52;7.97;;;11.00;99.90;;;;;;5133660;27;20183;-53
2022/09/21 07:09:50;;;;;;;11.90;7.70;;;11.20;99.90;;;;;;5134349;27;20203;-53
2022/09/21 07:12:16;;;;;;;12.07;7.50;;;11.30;99.90;;;;;;5134537;27;20168;-53
2022/09/21 07:14:43;;;;;;;11.73;8.20;;;11.40;99.90;;;;;;5134109;27;20531;-53
2022/09/21 07:17:09;;;;;;;18.42;8.23;;;11.40;99.90;;;;;;5134376;27;20171;-52
2022/09/21 07:19:35;;;;;;;15.50;7.65;;;8.60;99.90;;;;;;5134457;27;20664;-54
2022/09/21 07:22:01;;;;;;;12.88;7.55;;;11.70;99.90;;;;;;5134149;27;20516;-53
2022/09/21 07:24:27;;;;;;;15.25;8.23;;;11.90;99.90;;;;;;5134289;27;20170;-55
2022/09/21 07:26:53;;;;;;;13.13;7.68;;;12.00;99.90;;;;;;5134656;27;20171;-52
2022/09/21 07:29:19;;;;;;;15.48;7.45;;;12.20;99.90;;;;;;5133852;27;20188;-53
2022/09/21 07:31:44;;;;;;;17.33;8.48;;;12.30;99.90;;;;;;5133895;27;20183;-52
2022/09/21 07:34:10;;;;;;;14.80;7.60;;;12.40;99.90;;;;;;5133908;27;20235;-53
2022/09/21 07:36:36;;;;;;;13.23;8.63;;;12.60;99.90;;;;;;5133807;27;20176;-53
2022/09/21 07:39:02;;;;;;;13.13;8.65;;;12.70;99.90;;;;;;5133832;27;20164;-53
2022/09/21 07:41:28;;;;;;;15.63;9.18;;;12.70;99.90;;;;;;5132284;27;20171;-53
2022/09/21 07:43:53;;;;;;;14.70;7.70;;;12.80;99.90;;;;;;5133755;27;20176;-49
2022/09/21 07:46:19;;;;;;;14.43;8.38;;;12.90;99.90;;;;;;5133143;27;20214;-57
2022/09/21 07:48:45;;;;;;;13.10;8.27;;;13.00;99.90;;;;;;5133765;27;20168;-57
2022/09/21 07:51:13;;;;;;;14.10;8.88;;;13.20;99.90;;;;;;5133335;27;20664;-50
2022/09/21 07:53:41;;;;;;;16.20;8.93;;;13.10;99.90;;;;;;5133322;27;20570;-48
2022/09/21 07:56:15;;;;;;;15.75;9.15;;;13.10;99.90;;;;;;5133513;27;20317;-47
2022/09/21 08:01:27;;;;;;;15.85;8.32;;;13.00;99.90;;;;;;5133807;27;20171;-53
2022/09/21 08:03:55;;;;;;;16.08;9.25;;;13.10;99.90;;;;;;5133908;27;20172;-54
2022/09/21 08:06:22;;;;;;;12.20;8.43;;;13.20;99.90;;;;;;5133246;27;20171;-53
2022/09/21 08:08:49;;;;;;;18.98;9.70;;;13.30;99.90;;;;;;5133340;27;20204;-52
2022/09/21 08:11:16;;;;;;;16.95;8.75;;;13.30;99.90;;;;;;5133320;27;20215;-53
2022/09/21 08:13:42;;;;;;;16.40;8.43;;;13.30;99.90;;;;;;5133127;27;20167;-53
2022/09/21 08:16:08;;;;;;;13.82;8.60;;;13.50;99.90;;;;;;5133192;27;20521;-54
2022/09/21 08:18:38;;;;;;;18.17;9.30;;;13.50;99.90;;;;;;5133131;27;20160;-53
2022/09/21 08:21:04;;;;;;;17.33;9.40;;;13.60;99.90;;;;;;5133237;27;20175;-54
2022/09/21 08:23:30;;;;;;;14.55;8.98;;;13.60;99.90;;;;;;5133272;27;20184;-54
2022/09/21 08:26:07;;;;;;;14.63;9.07;;;13.70;99.90;;;;;;5131996;27;20187;-53
2022/09/21 08:28:35;;;;;;;15.68;9.85;;;13.60;99.90;;;;;;5131936;27;20198;-53
2022/09/21 08:31:01;;;;;;;15.90;9.85;;;13.80;99.90;;;;;;5132622;27;20214;-53
2022/09/21 08:33:27;;;;;;;17.27;9.88;;;13.90;99.90;;;;;;5133194;27;20164;-54
2022/09/21 08:35:54;;;;;;;18.20;9.65;;;14.00;99.90;;;;;;5133072;27;20512;-54
2022/09/21 08:38:20;;;;;;;18.70;9.20;;;14.00;99.90;;;;;;5132560;27;20568;-54
2022/09/21 08:40:46;;;;;;;13.63;9.52;;;13.90;99.90;;;;;;5132928;27;20168;-50
2022/09/21 08:43:28;;;;;;;16.60;10.05;;;14.10;99.90;;;;;;5132636;27;20699;-46
2022/09/21 08:45:54;;;;;;;18.50;9.00;;;14.30;99.90;;;;;;5132530;27;20245;-52
2022/09/21 08:48:29;;;;;;;16.33;8.73;;;14.50;99.90;;;;;;5132043;27;20220;-52
2022/09/21 08:50:59;;;;;;;16.23;9.07;;;14.60;99.90;;;;;;5133016;27;20207;-52
2022/09/21 08:53:39;;;;;;;15.10;9.00;;;14.60;99.90;;;;;;5132588;27;20276;-53
2022/09/21 08:56:05;;;;;;;18.75;9.05;;;14.70;99.90;;;;;;5131815;27;20225;-52
2022/09/21 08:58:31;;;;;;;19.48;8.48;;;14.60;99.90;;;;;;5131947;27;20172;-52
2022/09/21 09:01:18;;;;;;;18.63;8.07;;;14.80;99.90;;;;;;5132595;27;20230;-52
2022/09/21 09:03:53;;;;;;;11.00;6.55;;;14.80;99.90;;;;;;5132210;27;20560;-52
2022/09/21 09:06:33;;;;;;;14.27;7.05;;;15.00;99.90;;;;;;5132431;27;20178;-52
2022/09/21 09:09:13;;;;;;;9.45;5.75;;;15.10;99.90;;;;;;5132204;27;20189;-52
2022/09/21 09:11:57;;;;;;;11.20;6.32;;;15.30;99.90;;;;;;5132077;27;20711;-52
2022/09/21 09:14:45;;;;;;;11.63;6.25;;;15.20;99.90;;;;;;5132351;27;20168;-52
2022/09/21 09:17:48;;;;;;;10.80;6.60;;;15.20;99.90;;;;;;5132032;27;20159;-52
2022/09/21 09:20:13;;;;;;;9.57;6.75;;;15.40;99.90;;;;;;5132526;27;20164;-55
2022/09/21 09:22:43;;;;;;;14.95;5.75;;;15.50;99.90;;;;;;5132343;27;20167;-54
2022/09/21 09:25:21;;;;;;;14.30;6.03;;;15.60;99.90;;;;;;5131847;27;20168;-54
2022/09/21 09:27:51;;;;;;;11.70;6.25;;;15.80;99.90;;;;;;5131740;27;20594;-54
2022/09/21 09:30:26;;;;;;;15.45;6.43;;;15.80;99.90;;;;;;5131497;27;20211;-54
2022/09/21 09:33:05;;;;;;;12.95;5.60;;;15.80;99.90;;;;;;5131677;27;20167;-54
2022/09/21 09:35:37;;;;;;;11.80;5.28;;;15.70;99.90;;;;;;5131065;27;20156;-54
2022/09/21 09:38:25;;;;;;;7.28;4.60;;;15.90;99.90;;;;;;5131380;27;20160;-54
2022/09/21 09:41:11;;;;;;;7.72;4.63;;;15.80;99.90;;;;;;5131940;27;20558;-54
2022/09/21 09:43:47;;;;;;;13.02;5.38;;;16.00;99.90;;;;;;5131575;27;20632;-54
2022/09/21 09:46:30;;;;;;;6.15;4.57;;;16.30;99.90;;;;;;5131562;27;20152;-55
2022/09/21 09:48:55;;;;;;;12.77;5.43;;;16.40;99.90;;;;;;5131800;27;20168;-54
2022/09/21 09:51:21;;;;;;;8.55;4.40;;;16.30;99.90;;;;;;5131261;27;20274;-54
2022/09/21 09:53:46;;;;;;;7.82;4.20;;;16.50;99.90;;;;;;5129863;27;20677;-55
2022/09/21 09:56:13;;;;;;;6.40;3.70;;;16.60;99.90;;;;;;5131432;27;20576;-55
2022/09/21 09:58:59;;;;;;;9.73;4.30;;;16.50;99.90;;;;;;5131621;27;20245;-54
2022/09/21 10:01:42;;;;;;;6.50;3.67;;;16.50;99.90;;;;;;5131295;27;20690;-54
2022/09/21 10:04:12;;;;;;;8.07;3.63;;;16.80;99.90;;;;;;5131004;27;20217;-55
2022/09/21 10:06:38;;;;;;;6.38;3.35;;;16.90;99.90;;;;;;5129638;27;20167;-54
2022/09/21 10:09:22;;;;;;;8.57;3.33;;;16.90;99.90;;;;;;5135149;27;20246;-54
2022/09/21 10:11:48;;;;;;;6.82;4.03;;;17.10;99.90;;;;;;5135467;27;20224;-54
2022/09/21 10:14:20;;;;;;;5.80;3.97;;;17.00;99.90;;;;;;5134080;27;20168;-53
2022/09/21 10:16:50;;;;;;;6.80;4.70;;;17.00;99.90;;;;;;5134329;27;20213;-54
2022/09/21 10:19:34;;;;;;;7.20;4.60;;;17.20;99.90;;;;;;5135295;27;20209;-54
2022/09/21 10:22:02;;;;;;;22.40;6.57;;;16.90;99.90;;;;;;5135310;27;20179;-54
2022/09/21 10:24:34;;;;;;;8.50;5.45;;;17.10;99.90;;;;;;5135383;27;20259;-54
2022/09/21 10:27:10;;;;;;;9.18;4.80;;;17.20;99.90;;;;;;5134867;27;20647;-54
2022/09/21 10:29:40;;;;;;;7.85;5.43;;;17.30;99.90;;;;;;5135199;27;20585;-54
2022/09/21 10:32:12;;;;;;;8.80;5.47;;;17.20;99.90;;;;;;5135446;27;20232;-54
2022/09/21 10:34:40;;;;;;;6.88;4.70;;;17.40;99.90;;;;;;5135201;27;20168;-54
2022/09/21 10:37:24;;;;;;;10.70;5.55;;;17.40;99.90;;;;;;5134837;27;20164;-54
2022/09/21 10:39:50;;;;;;;9.00;5.82;;;17.40;99.90;;;;;;5134767;27;20246;-54
2022/09/21 10:42:18;;;;;;;9.18;5.75;;;17.70;99.90;;;;;;5116732;27;20265;-54
2022/09/21 10:45:02;;;;;;;9.18;5.30;;;17.80;99.90;;;;;;5134835;27;20213;-54
2022/09/21 10:47:41;;;;;;;9.82;6.13;;;17.90;99.90;;;;;;5134741;27;20167;-54
2022/09/21 10:50:24;;;;;;;11.48;6.72;;;17.80;99.90;;;;;;5134684;27;20204;-54
2022/09/21 10:52:58;;;;;;;17.67;7.70;;;17.80;99.90;;;;;;5134905;27;20172;-54
2022/09/21 10:55:24;;;;;;;8.25;5.60;;;18.00;99.90;;;;;;5134940;27;20544;-54
2022/09/21 10:57:51;;;;;;;11.93;5.53;;;17.90;99.90;;;;;;5134659;27;20255;-54
2022/09/21 11:00:23;;;;;;;5.80;4.00;;;18.10;99.90;;;;;;5134585;27;20172;-54
2022/09/21 11:02:49;;;;;;;8.63;5.30;;;17.90;99.90;;;;;;5134477;27;20166;-54
2022/09/21 11:05:25;;;;;;;8.23;5.45;;;17.80;99.90;;;;;;5134354;27;20263;-54
2022/09/21 11:08:14;;;;;;;4.47;3.38;;;18.00;99.90;;;;;;5134409;27;20156;-54
2022/09/21 11:10:50;;;;;;;7.65;3.58;;;18.10;99.90;;;;;;5134354;27;20240;-54
2022/09/21 11:13:37;;;;;;;7.43;1.70;;;18.20;99.90;;;;;;5134438;27;20181;-54
2022/09/21 11:16:27;;;;;;;4.85;2.72;;;18.30;99.90;;;;;;5134324;27;20159;-54
2022/09/21 11:19:18;;;;;;;4.60;2.10;;;18.50;99.90;;;;;;5133883;27;20625;-54
2022/09/21 11:22:04;;;;;;;4.30;2.55;;;18.20;99.90;;;;;;5127557;27;20188;-54
2022/09/21 11:24:50;;;;;;;7.70;2.53;;;18.00;99.90;;;;;;5134268;27;20172;-54
2022/09/21 11:27:24;;;;;;;4.43;2.67;;;18.10;99.90;;;;;;5133952;27;20168;-54
2022/09/21 11:30:00;;;;;;;6.40;2.47;;;18.30;99.90;;;;;;5133626;27;20228;-54
2022/09/21 11:32:44;;;;;;;7.65;2.53;;;18.60;99.90;;;;;;5134595;27;20167;-54
2022/09/21 11:35:54;;;;;;;6.85;2.75;;;18.50;99.90;;;;;;5133916;27;20257;-54
2022/09/21 11:38:47;;;;;;;5.43;2.20;;;18.80;99.90;;;;;;5089503;28;20243;-54
2022/09/21 11:41:29;;;;;;;4.85;2.40;;;18.90;99.90;;;;;;5090360;28;20291;-54
2022/09/21 11:44:24;;;;;;;5.53;2.35;;;18.80;99.90;;;;;;5123928;27;20194;-54
2022/09/21 11:47:02;;;;;;;2.78;1.92;;;19.00;99.90;;;;;;5131286;27;20180;-54
2022/09/21 11:49:58;;;;;;;7.15;1.98;;;18.50;99.90;;;;;;5133275;27;20203;-54
2022/09/21 11:52:39;;;;;;;5.40;2.10;;;18.70;99.90;;;;;;5133500;27;20168;-54
2022/09/21 11:55:17;;;;;;;6.03;2.47;;;18.80;99.90;;;;;;5133336;27;20228;-54
2022/09/21 11:58:09;;;;;;;6.82;2.70;;;18.80;99.90;;;;;;5133500;27;20172;-54
2022/09/21 12:01:10;;;;;;;3.42;2.60;;;18.80;99.90;;;;;;5133443;27;20247;-54
2022/09/21 12:03:46;;;;;;;5.20;2.70;;;19.00;99.90;;;;;;5133391;27;20644;-54
2022/09/21 12:06:35;;;;;;;5.18;2.67;;;19.00;99.90;;;;;;5132998;27;20195;-54
2022/09/21 12:09:25;;;;;;;6.53;2.15;;;18.50;99.90;;;;;;5132708;27;20184;-54
2022/09/21 12:11:57;;;;;;;4.13;2.10;;;18.70;99.90;;;;;;5133171;27;20271;-54
2022/09/21 12:14:49;;;;;;;7.25;2.20;;;19.10;99.90;;;;;;5133730;27;20171;-54
2022/09/21 12:17:39;;;;;;;5.95;2.42;;;19.00;99.90;;;;;;5133071;27;20160;-54
2022/09/21 12:20:30;;;;;;;5.20;2.33;;;19.00;99.90;;;;;;5133111;27;20652;-53
2022/09/21 12:23:06;;;;;;;5.95;2.28;;;19.10;99.90;;;;;;5133071;27;20171;-53
2022/09/21 12:25:37;;;;;;;5.03;2.28;;;19.30;99.90;;;;;;5132888;27;20162;-53
2022/09/21 12:28:23;;;;;;;4.53;1.65;;;19.40;99.90;;;;;;5132785;27;20221;-54
2022/09/21 12:30:54;;;;;;;4.15;2.08;;;19.30;99.90;;;;;;5132644;27;20584;-53
2022/09/21 12:33:24;;;;;;;9.80;1.80;;;18.90;99.90;;;;;;5132553;27;20168;-53
2022/09/21 12:35:57;;;;;;;7.85;1.85;;;18.60;99.90;;;;;;5132437;27;20220;-54
2022/09/21 12:38:34;;;;;;;4.65;1.63;;;18.70;99.90;;;;;;5133083;27;20216;-53
2022/09/21 12:41:18;;;;;;;6.25;2.10;;;18.40;99.90;;;;;;5132711;27;20188;-53
2022/09/21 12:43:50;;;;;;;6.97;1.90;;;18.00;99.90;;;;;;5132319;27;20156;-53
2022/09/21 12:46:24;;;;;;;3.25;1.60;;;17.90;99.90;;;;;;5132296;27;20168;-53
2022/09/21 12:48:50;;;;;;;4.55;1.45;;;17.70;99.90;;;;;;5132154;27;20238;-53
2022/09/21 12:51:19;;;;;;;2.33;1.30;;;18.00;99.90;;;;;;5131905;27;20299;-53
2022/09/21 12:53:47;;;;;;;5.45;1.88;;;17.60;99.90;;;;;;5132045;27;20249;-53
2022/09/21 12:56:23;;;;;;;2.92;1.48;;;17.40;99.90;;;;;;5131952;27;20197;-53
2022/09/21 12:59:13;;;;;;;3.47;1.95;;;17.30;99.90;;;;;;5131547;27;20156;-53
2022/09/21 13:02:03;;;;;;;5.65;1.50;;;17.10;99.90;;;;;;5132246;27;20198;-53
2022/09/21 13:04:44;;;;;;;8.00;1.33;;;17.00;99.90;;;;;;5131964;27;20179;-53
2022/09/21 13:07:12;;;;;;;2.85;1.40;;;16.90;99.90;;;;;;5131906;27;20202;-53
2022/09/21 13:09:43;;;;;;;3.63;1.50;;;16.90;99.90;;;;;;5131702;27;20664;-53
2022/09/21 13:12:18;;;;;;;5.13;1.60;;;16.90;99.90;;;;;;5131590;27;20164;-53
2022/09/21 13:14:57;;;;;;;7.22;1.73;;;16.70;99.90;;;;;;5131510;27;20156;-53
2022/09/21 13:17:27;;;;;;;3.90;1.77;;;16.70;99.90;;;;;;5132222;27;20180;-53